createdAt,value
2023-03-08T00:01:46.132Z,0.70
2023-03-08T00:04:52.245Z,0.77
2023-03-08T00:07:57.898Z,0.80
2023-03-08T00:11:03.506Z,0.50
2023-03-08T00:14:09.987Z,0.80
2023-03-08T00:17:18.752Z,0.70
2023-03-08T00:20:26.683Z,0.90
2023-03-08T00:23:32.491Z,0.40
2023-03-08T00:26:39.133Z,0.90
2023-03-08T00:29:44.691Z,0.70
2023-03-08T00:32:54.753Z,0.70
2023-03-08T00:36:02.695Z,0.68
2023-03-08T00:39:08.265Z,0.65
2023-03-08T00:42:16.196Z,1.17
2023-03-08T00:45:21.612Z,0.82
2023-03-08T00:48:30.079Z,1.45
2023-03-08T00:51:36.352Z,1.15
2023-03-08T00:54:43.617Z,0.80
2023-03-08T00:57:51.288Z,0.70
2023-03-08T01:01:00.400Z,0.70
2023-03-08T01:04:09.369Z,1.20
2023-03-08T01:07:18.034Z,0.75
2023-03-08T01:10:23.203Z,0.73
2023-03-08T01:13:30.078Z,0.60
2023-03-08T01:16:35.921Z,0.90
2023-03-08T01:19:44.538Z,0.88
2023-03-08T01:22:49.756Z,0.80
2023-03-08T01:26:04.408Z,0.70
2023-03-08T01:29:10.098Z,0.80
2023-03-08T01:32:19.873Z,0.70
2023-03-08T01:35:27.950Z,1.08
2023-03-08T01:38:33.493Z,0.60
2023-03-08T01:41:41.273Z,0.85
2023-03-08T01:44:57.285Z,0.98
2023-03-08T01:48:05.408Z,0.68
2023-03-08T01:51:15.744Z,0.65
2023-03-08T01:54:22.437Z,0.70
2023-03-08T01:57:29.547Z,0.70
2023-03-08T02:00:36.930Z,0.20
2023-03-08T02:03:44.016Z,1.00
2023-03-08T02:06:52.059Z,0.60
2023-03-08T02:09:58.470Z,0.70
2023-03-08T02:13:05.362Z,1.02
2023-03-08T02:16:13.292Z,0.65
2023-03-08T02:19:23.739Z,0.63
2023-03-08T02:22:32.558Z,0.60
2023-03-08T02:25:43.176Z,0.63
2023-03-08T02:28:56.358Z,0.70
2023-03-08T02:32:01.393Z,0.73
2023-03-08T02:35:08.950Z,0.80
2023-03-08T02:38:14.776Z,0.55
2023-03-08T02:41:24.409Z,0.57
2023-03-08T02:44:31.318Z,0.95
2023-03-08T02:47:39.229Z,0.70
2023-03-08T02:50:46.194Z,0.80
2023-03-08T02:53:52.645Z,0.80
2023-03-08T02:57:03.133Z,1.33
2023-03-08T03:00:10.336Z,0.80
2023-03-08T03:03:18.751Z,0.90
2023-03-08T03:06:26.917Z,0.70
2023-03-08T03:09:32.729Z,0.60
2023-03-08T03:12:41.282Z,0.50
2023-03-08T03:15:47.736Z,0.70
2023-03-08T03:18:53.833Z,0.40
2023-03-08T03:22:03.018Z,1.00
2023-03-08T03:25:09.406Z,0.40
2023-03-08T03:28:17.042Z,0.60
2023-03-08T03:31:23.321Z,0.68
2023-03-08T03:34:30.432Z,0.73
2023-03-08T03:37:37.760Z,0.70
2023-03-08T03:40:43.505Z,0.70
2023-03-08T03:43:52.337Z,0.50
2023-03-08T03:46:57.466Z,0.60
2023-03-08T03:50:03.241Z,0.50
2023-03-08T03:53:09.605Z,0.63
2023-03-08T03:56:16.606Z,0.65
2023-03-08T03:59:27.303Z,0.65
2023-03-08T04:02:33.257Z,0.40
2023-03-08T04:05:40.610Z,0.75
2023-03-08T04:08:49.389Z,0.70
2023-03-08T04:11:54.710Z,0.60
2023-03-08T04:15:05.149Z,0.60
2023-03-08T04:18:11.188Z,0.43
2023-03-08T04:21:19.577Z,0.60
2023-03-08T04:24:27.445Z,0.68
2023-03-08T04:27:35.392Z,0.80
2023-03-08T04:30:46.164Z,0.82
2023-03-08T04:33:52.508Z,0.50
2023-03-08T04:36:57.417Z,1.15
2023-03-08T04:40:05.674Z,0.65
2023-03-08T04:43:11.286Z,0.55
2023-03-08T04:46:20.106Z,0.60
2023-03-08T04:49:27.623Z,0.75
2023-03-08T04:52:33.277Z,0.50
2023-03-08T04:55:39.706Z,0.65
2023-03-08T04:58:51.613Z,0.60
2023-03-08T05:01:59.711Z,0.57
2023-03-08T05:05:06.217Z,0.30
2023-03-08T05:08:11.528Z,0.70
2023-03-08T05:11:22.508Z,0.40
2023-03-08T05:14:27.534Z,0.70
2023-03-08T05:17:35.697Z,0.80
2023-03-08T05:20:40.766Z,0.45
2023-03-08T05:23:53.839Z,0.77
2023-03-08T05:27:05.664Z,0.75
2023-03-08T05:30:12.868Z,0.53
2023-03-08T05:33:23.323Z,0.50
2023-03-08T05:36:28.792Z,0.40
2023-03-08T05:39:34.045Z,0.63
2023-03-08T05:42:43.037Z,0.50
2023-03-08T05:45:57.373Z,0.55
2023-03-08T05:49:11.081Z,0.32
2023-03-08T05:52:16.053Z,0.70
2023-03-08T05:55:28.944Z,0.60
2023-03-08T05:58:34.140Z,0.43
2023-03-08T06:01:45.419Z,0.75
2023-03-08T06:04:56.306Z,0.60
2023-03-08T06:08:02.425Z,0.55
2023-03-08T06:11:07.597Z,0.50
2023-03-08T06:14:13.466Z,0.70
2023-03-08T06:17:20.832Z,0.60
2023-03-08T06:20:30.051Z,0.75
2023-03-08T06:23:35.511Z,0.77
2023-03-08T06:26:43.865Z,0.65
2023-03-08T06:29:49.124Z,0.70
2023-03-08T06:32:54.628Z,0.57
2023-03-08T06:36:03.618Z,0.40
2023-03-08T06:39:10.071Z,0.50
2023-03-08T06:42:16.401Z,0.60
2023-03-08T06:45:26.498Z,0.60
2023-03-08T06:48:31.400Z,0.40
2023-03-08T06:51:39.360Z,0.50
2023-03-08T06:54:44.275Z,0.80
2023-03-08T06:57:50.092Z,0.70
2023-03-08T07:00:55.171Z,0.40
2023-03-08T07:04:00.646Z,1.00
2023-03-08T07:07:09.205Z,0.47
2023-03-08T07:10:15.730Z,0.40
2023-03-08T07:13:23.706Z,1.42
2023-03-08T07:16:29.414Z,0.60
2023-03-08T07:19:34.796Z,0.30
2023-03-08T07:22:44.769Z,0.60
2023-03-08T07:25:49.679Z,0.47
2023-03-08T07:28:56.049Z,0.65
2023-03-08T07:32:01.038Z,0.50
2023-03-08T07:35:07.100Z,0.63
2023-03-08T07:38:15.599Z,0.63
2023-03-08T07:41:20.927Z,0.50
2023-03-08T07:44:26.050Z,0.57
2023-03-08T07:47:33.251Z,0.50
2023-03-08T07:50:38.158Z,0.60
2023-03-08T07:53:47.151Z,0.45
2023-03-08T07:56:52.430Z,0.40
2023-03-08T07:59:58.883Z,0.30
2023-03-08T08:03:08.776Z,0.50
2023-03-08T08:06:14.447Z,0.80
2023-03-08T08:09:22.892Z,1.58
2023-03-08T08:12:28.972Z,1.60
2023-03-08T08:15:35.928Z,1.75
2023-03-08T08:18:41.392Z,1.48
2023-03-08T08:21:46.897Z,1.55
2023-03-08T08:24:56.675Z,1.00
2023-03-08T08:28:01.843Z,0.70
2023-03-08T08:31:08.506Z,1.15
2023-03-08T08:34:13.745Z,1.25
2023-03-08T08:37:19.997Z,0.70
2023-03-08T08:40:29.254Z,0.63
2023-03-08T08:43:36.053Z,1.45
2023-03-08T08:46:41.370Z,0.80
2023-03-08T08:49:47.107Z,1.00
2023-03-08T08:52:54.807Z,0.75
2023-03-08T08:56:03.046Z,0.57
2023-03-08T08:59:08.259Z,0.80
2023-03-08T09:02:16.485Z,0.75
2023-03-08T09:05:21.876Z,0.90
2023-03-08T09:08:28.693Z,0.85
2023-03-08T09:11:45.122Z,1.08
2023-03-08T09:15:00.365Z,0.90
2023-03-08T09:18:06.107Z,0.85
2023-03-08T09:21:11.769Z,0.98
2023-03-08T09:24:18.962Z,1.27
2023-03-08T09:27:33.612Z,0.68
2023-03-08T09:30:38.952Z,1.30
2023-03-08T09:33:45.202Z,1.38
2023-03-08T09:36:50.348Z,1.70
2023-03-08T09:39:56.125Z,2.05
2023-03-08T09:43:08.496Z,1.67
2023-03-08T09:49:22.554Z,1.45
2023-03-08T09:52:35.479Z,1.50
2023-03-08T09:55:45.605Z,1.67
2023-03-08T09:58:57.769Z,1.90
2023-03-08T10:02:05.640Z,1.38
2023-03-08T10:05:18.710Z,1.75
2023-03-08T10:08:27.440Z,1.77
2023-03-08T10:11:35.702Z,2.20
2023-03-08T10:14:45.845Z,1.90
2023-03-08T10:17:54.270Z,2.45
2023-03-08T10:21:01.030Z,2.70
2023-03-08T10:24:15.682Z,1.42
2023-03-08T10:27:22.941Z,2.00
2023-03-08T10:30:30.952Z,1.52
2023-03-08T10:33:39.332Z,2.47
2023-03-08T10:36:54.236Z,2.30
2023-03-08T10:40:06.086Z,2.63
2023-03-08T10:43:18.714Z,2.40
2023-03-08T10:46:25.485Z,2.92
2023-03-08T10:49:33.605Z,2.50
2023-03-08T10:52:39.317Z,2.38
2023-03-08T10:55:50.679Z,2.45
2023-03-08T10:58:58.321Z,2.22
2023-03-08T11:02:05.583Z,3.03
2023-03-08T11:05:26.793Z,2.95
2023-03-08T11:08:38.335Z,2.75
2023-03-08T11:11:44.837Z,2.15
2023-03-08T11:14:51.600Z,2.30
2023-03-08T11:17:58.471Z,3.78
2023-03-08T11:21:08.544Z,3.60
2023-03-08T11:24:25.130Z,3.88
2023-03-08T11:27:43.067Z,4.65
2023-03-08T11:30:57.224Z,3.33
2023-03-08T11:34:17.448Z,4.25
2023-03-08T11:37:29.239Z,4.80
2023-03-08T11:40:44.272Z,4.50
2023-03-08T11:44:06.750Z,4.60
2023-03-08T11:47:29.839Z,5.18
2023-03-08T11:50:39.067Z,5.30
2023-03-08T11:53:54.443Z,5.65
2023-03-08T11:57:04.768Z,4.93
2023-03-08T12:00:18.519Z,5.25
2023-03-08T12:03:29.127Z,4.63
2023-03-08T12:06:38.085Z,4.25
2023-03-08T12:09:55.664Z,4.35
2023-03-08T12:13:08.065Z,4.10
2023-03-08T12:16:16.868Z,4.00
2023-03-08T12:19:27.489Z,4.32
2023-03-08T12:22:40.297Z,4.38
2023-03-08T12:25:48.419Z,5.13
2023-03-08T12:29:04.032Z,4.57
2023-03-08T12:32:12.060Z,4.30
2023-03-08T12:35:39.853Z,3.95
2023-03-08T12:38:47.592Z,3.20
2023-03-08T12:42:00.070Z,3.88
2023-03-08T12:45:31.460Z,3.30
2023-03-08T12:48:42.667Z,2.50
2023-03-08T12:51:58.936Z,3.05
2023-03-08T12:55:06.377Z,2.80
2023-03-08T12:58:19.627Z,3.22
2023-03-08T13:01:32.182Z,3.60
2023-03-08T13:07:57.505Z,3.67
2023-03-08T13:11:09.382Z,3.15
2023-03-08T13:14:28.202Z,2.40
2023-03-08T13:17:52.812Z,2.35
2023-03-08T13:21:05.565Z,4.20
2023-03-08T13:24:19.114Z,4.55
2023-03-08T13:27:33.526Z,4.22
2023-03-08T13:30:42.767Z,3.17
2023-03-08T13:33:49.353Z,3.70
2023-03-08T13:36:56.682Z,3.20
2023-03-08T13:40:08.079Z,2.90
2023-03-08T13:43:17.191Z,2.92
2023-03-08T13:46:23.984Z,3.17
2023-03-08T13:49:32.372Z,3.85
2023-03-08T13:52:39.982Z,3.63
2023-03-08T13:55:51.635Z,3.55
2023-03-08T13:58:59.774Z,3.00
2023-03-08T14:02:06.793Z,3.42
2023-03-08T14:05:25.155Z,3.30
2023-03-08T14:08:31.576Z,3.17
2023-03-08T14:11:42.360Z,2.92
2023-03-08T14:14:50.582Z,3.15
2023-03-08T14:18:02.733Z,3.15
2023-03-08T14:21:10.529Z,3.17
2023-03-08T14:24:20.252Z,4.20
2023-03-08T14:27:41.098Z,3.40
2023-03-08T14:30:51.217Z,4.15
2023-03-08T14:33:59.264Z,5.20
2023-03-08T14:37:05.112Z,4.80
2023-03-08T14:40:23.164Z,5.38
2023-03-08T14:43:32.324Z,5.05
2023-03-08T14:46:40.769Z,5.40
2023-03-08T14:49:45.954Z,5.15
2023-03-08T14:52:52.113Z,5.07
2023-03-08T14:55:57.184Z,5.85
2023-03-08T14:59:10.421Z,5.97
2023-03-08T15:02:20.185Z,4.78
2023-03-08T15:05:29.607Z,4.68
2023-03-08T15:08:37.442Z,5.82
2023-03-08T15:11:43.597Z,6.15
2023-03-08T15:14:51.612Z,5.82
2023-03-08T15:17:57.325Z,5.13
2023-03-08T15:21:02.702Z,5.93
2023-03-08T15:24:10.047Z,5.70
2023-03-08T15:27:17.600Z,5.55
2023-03-08T15:30:27.881Z,6.28
2023-03-08T15:33:33.357Z,6.40
2023-03-08T15:36:39.832Z,6.55
2023-03-08T15:39:45.933Z,7.03
2023-03-08T15:42:51.545Z,7.05
2023-03-08T15:45:59.861Z,7.07
2023-03-08T15:49:09.770Z,7.35
2023-03-08T15:52:30.315Z,6.95
2023-03-08T15:55:37.359Z,6.15
2023-03-08T15:58:43.231Z,4.35
2023-03-08T16:01:55.578Z,1.60
2023-03-08T16:05:02.122Z,2.13
2023-03-08T16:08:09.974Z,1.88
2023-03-08T16:11:19.612Z,2.10
2023-03-08T16:14:29.034Z,2.35
2023-03-08T16:17:40.820Z,2.53
2023-03-08T16:20:49.586Z,2.10
2023-03-08T16:23:54.984Z,2.10
2023-03-08T16:27:01.030Z,2.10
2023-03-08T16:30:07.378Z,3.03
2023-03-08T16:33:17.962Z,2.40
2023-03-08T16:36:24.674Z,2.60
2023-03-08T16:39:30.629Z,2.42
2023-03-08T16:42:36.407Z,2.40
2023-03-08T16:45:54.977Z,2.25
2023-03-08T16:49:04.543Z,2.17
2023-03-08T16:52:16.380Z,3.78
2023-03-08T16:55:24.125Z,3.40
2023-03-08T16:58:31.273Z,2.92
2023-03-08T17:01:40.664Z,2.22
2023-03-08T17:04:50.416Z,2.50
2023-03-08T17:07:55.802Z,2.72
2023-03-08T17:11:04.994Z,2.33
2023-03-08T17:14:13.606Z,2.60
2023-03-08T17:17:26.540Z,2.78
2023-03-08T17:20:34.984Z,2.78
2023-03-08T17:23:42.212Z,3.63
2023-03-08T17:27:02.911Z,5.05
2023-03-08T17:30:14.344Z,19.42
2023-03-08T17:33:26.107Z,18.70
2023-03-08T17:36:39.168Z,26.88
2023-03-08T17:39:46.033Z,14.70
2023-03-08T17:42:54.100Z,13.68
2023-03-08T17:46:05.146Z,13.45
2023-03-08T17:49:13.966Z,12.97
2023-03-08T17:52:24.303Z,10.95
2023-03-08T17:55:32.569Z,10.98
2023-03-08T17:58:39.201Z,11.20
2023-03-08T18:01:45.281Z,9.38
2023-03-08T18:05:04.940Z,18.77
2023-03-08T18:08:16.520Z,8.73
2023-03-08T18:11:23.292Z,7.93
2023-03-08T18:14:39.562Z,7.15
2023-03-08T18:17:54.063Z,7.05
2023-03-08T18:21:12.733Z,5.35
2023-03-08T18:24:24.191Z,5.22
2023-03-08T18:27:30.227Z,5.28
2023-03-08T18:30:50.689Z,5.93
2023-03-08T18:34:02.338Z,4.50
2023-03-08T18:37:09.766Z,4.05
2023-03-08T18:40:20.013Z,3.38
2023-03-08T18:43:35.387Z,2.50
2023-03-08T18:46:41.367Z,2.90
2023-03-08T18:49:48.952Z,2.50
2023-03-08T18:52:55.373Z,2.10
2023-03-08T18:56:07.487Z,2.90
2023-03-08T18:59:14.311Z,2.92
2023-03-08T19:02:29.152Z,2.30
2023-03-08T19:05:35.189Z,2.50
2023-03-08T19:15:28.717Z,12.88
2023-03-08T19:18:43.838Z,11.18
2023-03-08T19:21:55.144Z,11.73
2023-03-08T19:28:38.930Z,15.40
2023-03-08T19:38:28.457Z,5.28
2023-03-08T20:06:13.716Z,5.45
2023-03-08T20:12:41.239Z,5.60
2023-03-08T20:15:56.315Z,5.28
2023-03-08T20:23:05.267Z,5.18
2023-03-08T20:26:15.876Z,4.50
2023-03-08T20:29:26.625Z,6.15
2023-03-08T20:32:35.898Z,6.57
2023-03-08T20:35:41.709Z,5.78
2023-03-08T20:38:52.105Z,6.18
2023-03-08T20:45:35.249Z,6.85
2023-03-08T20:48:47.869Z,7.85
2023-03-08T20:51:53.438Z,8.45
2023-03-08T20:55:07.285Z,8.15
2023-03-08T20:58:13.716Z,8.05
2023-03-08T21:01:23.425Z,7.57
2023-03-08T21:04:29.408Z,7.05
2023-03-08T21:07:36.967Z,7.90
2023-03-08T21:10:48.856Z,7.75
2023-03-08T21:13:59.704Z,8.10
2023-03-08T21:17:06.676Z,7.30
2023-03-08T21:20:33.160Z,7.25
2023-03-08T21:23:40.280Z,6.88
2023-03-08T21:26:52.179Z,7.57
2023-03-08T21:29:58.152Z,8.52
2023-03-08T21:33:06.417Z,6.80
2023-03-08T21:36:13.009Z,6.78
2023-03-08T21:39:21.089Z,6.63
2023-03-08T21:42:36.382Z,6.63
2023-03-08T21:45:47.516Z,7.68
2023-03-08T21:48:54.668Z,7.03
2023-03-08T21:52:06.720Z,6.78
2023-03-08T21:55:31.007Z,6.70
2023-03-08T21:58:47.720Z,8.13
2023-03-08T22:01:57.488Z,8.15
2023-03-08T22:05:14.895Z,7.13
2023-03-08T22:08:26.673Z,8.32
2023-03-08T22:11:33.396Z,8.70
2023-03-08T22:14:43.442Z,8.93
2023-03-08T22:17:56.483Z,7.90
2023-03-08T22:21:06.320Z,8.68
2023-03-08T22:24:13.005Z,8.35
2023-03-08T22:27:18.871Z,7.85
2023-03-08T22:30:39.956Z,8.43
2023-03-08T22:33:51.282Z,7.78
2023-03-08T22:37:06.374Z,7.95
2023-03-08T22:40:18.716Z,8.65
2023-03-08T22:46:42.503Z,8.07
2023-03-08T22:49:48.708Z,8.32
2023-03-08T22:52:55.808Z,8.18
2023-03-08T22:56:04.531Z,7.80
2023-03-08T22:59:14.065Z,8.32
2023-03-08T23:02:24.374Z,7.70
2023-03-08T23:05:33.097Z,8.52
2023-03-08T23:09:00.644Z,7.50
2023-03-08T23:12:07.832Z,8.63
2023-03-08T23:15:15.890Z,8.20
2023-03-08T23:18:26.274Z,10.80
2023-03-08T23:21:33.830Z,9.82
2023-03-08T23:24:45.281Z,10.18
2023-03-08T23:27:53.061Z,11.32
2023-03-08T23:31:02.607Z,12.45
2023-03-08T23:34:13.844Z,13.00
2023-03-08T23:37:20.551Z,11.95
2023-03-08T23:40:28.376Z,10.13
2023-03-08T23:43:35.990Z,10.00
2023-03-08T23:46:46.577Z,9.60
2023-03-08T23:49:54.830Z,9.45
2023-03-08T23:53:02.261Z,9.52
2023-03-08T23:56:19.960Z,8.55
2023-03-08T23:59:33.619Z,9.80
